createdAt,value
2022-10-17T00:02:17.796Z,101140.48
2022-10-17T00:04:47.998Z,101131.52
2022-10-17T00:07:18.181Z,101126.95
2022-10-17T00:09:48.370Z,101128.38
2022-10-17T00:12:18.599Z,101127.38
2022-10-17T00:14:48.850Z,101126.19
2022-10-17T00:17:19.081Z,101126.24
2022-10-17T00:19:49.452Z,101129.79
2022-10-17T00:22:19.715Z,101137.52
2022-10-17T00:24:49.964Z,101142.73
2022-10-17T00:27:20.514Z,101145.98
2022-10-17T00:29:52.871Z,101147.21
2022-10-17T00:32:23.482Z,101145.12
2022-10-17T00:34:53.696Z,101150.89
2022-10-17T00:37:23.904Z,101148.23
2022-10-17T00:39:54.378Z,101150.33
2022-10-17T00:42:25.198Z,101152.45
2022-10-17T00:45:07.521Z,101157.20
2022-10-17T00:47:38.337Z,101157.36
2022-10-17T00:50:10.421Z,101155.25
2022-10-17T00:52:41.360Z,101152.44
2022-10-17T00:55:16.014Z,101155.61
2022-10-17T00:57:47.632Z,101156.85
2022-10-17T01:00:19.481Z,101152.90
2022-10-17T01:02:49.803Z,101158.11
2022-10-17T01:05:21.589Z,101158.21
2022-10-17T01:07:54.357Z,101158.61
2022-10-17T01:10:27.333Z,101156.13
2022-10-17T01:13:10.784Z,101155.25
2022-10-17T01:15:51.514Z,101152.42
2022-10-17T01:18:32.427Z,101156.81
2022-10-17T01:21:35.300Z,101160.32
2022-10-17T01:24:44.048Z,101157.51
2022-10-17T01:27:37.192Z,101155.56
2022-10-17T01:30:30.551Z,101160.63
2022-10-17T01:33:06.436Z,101156.76
2022-10-17T01:35:43.265Z,101159.69
2022-10-17T01:38:19.488Z,101160.68
2022-10-17T01:40:54.752Z,101154.93
2022-10-17T01:43:28.662Z,101162.64
2022-10-17T01:46:04.071Z,101162.80
2022-10-17T01:48:37.205Z,101161.79
2022-10-17T01:51:12.295Z,101157.97
2022-10-17T01:53:48.204Z,101154.30
2022-10-17T01:56:21.536Z,101150.96
2022-10-17T01:58:56.445Z,101145.70
2022-10-17T02:01:27.954Z,101144.63
2022-10-17T02:03:59.200Z,101145.86
2022-10-17T02:06:29.461Z,101145.88
2022-10-17T02:08:59.682Z,101141.67
2022-10-17T02:11:30.477Z,101137.98
2022-10-17T02:14:23.592Z,101134.45
2022-10-17T02:17:02.077Z,101135.31
2022-10-17T02:19:41.989Z,101137.41
2022-10-17T02:22:24.779Z,101141.81
2022-10-17T02:25:03.883Z,101143.73
2022-10-17T02:27:44.855Z,101150.23
2022-10-17T02:30:22.738Z,101160.92
2022-10-17T02:32:57.915Z,101165.48
2022-10-17T02:35:31.549Z,101168.27
2022-10-17T02:38:04.546Z,101170.35
2022-10-17T02:40:36.764Z,101173.48
2022-10-17T02:43:07.144Z,101175.94
2022-10-17T02:45:39.853Z,101176.46
2022-10-17T02:48:17.347Z,101181.58
2022-10-17T02:50:58.167Z,101177.23
2022-10-17T02:53:38.702Z,101173.77
2022-10-17T02:56:15.672Z,101176.95
2022-10-17T02:58:51.322Z,101182.58
2022-10-17T03:01:22.085Z,101183.47
2022-10-17T03:03:53.112Z,101191.25
2022-10-17T03:06:23.412Z,101193.27
2022-10-17T03:08:53.667Z,101197.53
2022-10-17T03:11:23.859Z,101194.20
2022-10-17T03:13:54.101Z,101193.52
2022-10-17T03:16:24.326Z,101191.92
2022-10-17T03:18:54.558Z,101195.30
2022-10-17T03:21:24.841Z,101190.39
2022-10-17T03:23:55.101Z,101190.58
2022-10-17T03:26:25.379Z,101194.98
2022-10-17T03:28:55.644Z,101192.55
2022-10-17T03:31:26.161Z,101198.85
2022-10-17T03:33:56.710Z,101204.84
2022-10-17T03:36:26.980Z,101205.62
2022-10-17T03:38:57.737Z,101205.50
2022-10-17T03:41:28.064Z,101203.06
2022-10-17T03:43:58.276Z,101203.25
2022-10-17T03:46:28.641Z,101208.17
2022-10-17T03:48:58.895Z,101209.25
2022-10-17T03:51:29.325Z,101211.52
2022-10-17T03:53:59.547Z,101216.57
2022-10-17T03:56:29.838Z,101213.73
2022-10-17T03:59:00.090Z,101216.72
2022-10-17T04:01:30.511Z,101218.98
2022-10-17T04:04:00.761Z,101220.56
2022-10-17T04:06:31.085Z,101219.85
2022-10-17T04:09:01.604Z,101223.52
2022-10-17T04:11:31.995Z,101220.36
2022-10-17T04:14:02.295Z,101220.89
2022-10-17T04:16:32.763Z,101222.65
2022-10-17T04:19:03.942Z,101228.07
2022-10-17T04:21:34.182Z,101229.47
2022-10-17T04:24:04.546Z,101228.08
2022-10-17T04:26:34.774Z,101227.00
2022-10-17T04:29:05.088Z,101224.36
2022-10-17T04:31:35.882Z,101224.37
2022-10-17T04:34:06.121Z,101223.50
2022-10-17T04:36:36.521Z,101222.83
2022-10-17T04:39:06.849Z,101224.05
2022-10-17T04:41:37.268Z,101227.19
2022-10-17T04:44:07.727Z,101227.17
2022-10-17T04:46:38.013Z,101228.08
2022-10-17T04:49:09.396Z,101228.77
2022-10-17T04:51:40.496Z,101231.05
2022-10-17T04:54:10.907Z,101232.45
2022-10-17T04:56:41.183Z,101229.48
2022-10-17T04:59:11.393Z,101226.85
2022-10-17T05:01:41.644Z,101228.78
2022-10-17T05:04:11.866Z,101223.00
2022-10-17T05:06:42.146Z,101224.59
2022-10-17T05:09:12.456Z,101231.77
2022-10-17T05:11:45.344Z,101238.08
2022-10-17T05:14:16.325Z,101237.90
2022-10-17T05:16:46.519Z,101243.69
2022-10-17T05:19:17.233Z,101241.59
2022-10-17T05:21:47.457Z,101245.27
2022-10-17T05:24:19.146Z,101244.73
2022-10-17T05:26:50.985Z,101250.52
2022-10-17T05:29:21.305Z,101253.32
2022-10-17T05:31:51.574Z,101255.23
2022-10-17T05:34:21.937Z,101258.58
2022-10-17T05:36:52.171Z,101257.16
2022-10-17T05:39:23.385Z,101257.86
2022-10-17T05:41:53.716Z,101261.16
2022-10-17T05:44:23.960Z,101263.27
2022-10-17T05:46:54.402Z,101265.90
2022-10-17T05:49:33.341Z,101273.09
2022-10-17T05:52:14.112Z,101275.17
2022-10-17T05:54:44.318Z,101278.51
2022-10-17T05:57:14.652Z,101282.00
2022-10-17T05:59:44.846Z,101284.09
2022-10-17T06:02:15.599Z,101287.77
2022-10-17T06:04:48.488Z,101290.19
2022-10-17T06:07:19.198Z,101288.43
2022-10-17T06:09:49.455Z,101292.61
2022-10-17T06:12:19.705Z,101295.75
2022-10-17T06:14:49.920Z,101296.06
2022-10-17T06:17:20.202Z,101297.80
2022-10-17T06:19:50.390Z,101299.17
2022-10-17T06:22:20.656Z,101299.67
2022-10-17T06:24:52.507Z,101300.51
2022-10-17T06:27:23.375Z,101304.51
2022-10-17T06:29:53.585Z,101307.83
2022-10-17T06:32:23.825Z,101306.02
2022-10-17T06:34:54.049Z,101306.68
2022-10-17T06:37:24.250Z,101306.80
2022-10-17T06:39:54.460Z,101313.78
2022-10-17T06:42:24.728Z,101312.16
2022-10-17T06:44:54.901Z,101310.69
2022-10-17T06:47:25.097Z,101312.73
2022-10-17T06:49:55.303Z,101313.21
2022-10-17T06:52:25.643Z,101313.48
2022-10-17T06:54:55.923Z,101317.60
2022-10-17T06:57:26.502Z,101313.13
2022-10-17T06:59:57.625Z,101319.53
2022-10-17T07:02:28.187Z,101324.00
2022-10-17T07:04:58.659Z,101329.51
2022-10-17T07:07:31.452Z,101329.95
2022-10-17T07:10:03.846Z,101327.54
2022-10-17T07:12:34.146Z,101323.67
2022-10-17T07:15:05.356Z,101325.86
2022-10-17T07:17:35.714Z,101325.95
2022-10-17T07:20:06.546Z,101333.29
2022-10-17T07:22:36.865Z,101332.27
2022-10-17T07:25:08.730Z,101327.70
2022-10-17T07:27:39.108Z,101327.02
2022-10-17T07:30:11.894Z,101326.09
2022-10-17T07:32:42.951Z,101329.85
2022-10-17T07:35:14.412Z,101332.86
2022-10-17T07:37:44.667Z,101334.77
2022-10-17T07:40:15.052Z,101337.19
2022-10-17T07:42:45.280Z,101341.17
2022-10-17T07:45:15.763Z,101342.83
2022-10-17T07:47:46.003Z,101336.38
2022-10-17T07:50:16.305Z,101337.48
2022-10-17T07:52:46.738Z,101340.02
2022-10-17T07:55:17.328Z,101339.34
2022-10-17T07:57:47.581Z,101344.30
2022-10-17T08:00:25.532Z,101347.16
2022-10-17T08:02:55.763Z,101349.29
2022-10-17T08:05:26.096Z,101345.95
2022-10-17T08:07:57.072Z,101346.83
2022-10-17T08:10:29.617Z,101343.28
2022-10-17T08:13:00.338Z,101341.13
2022-10-17T08:15:32.149Z,101340.06
2022-10-17T08:18:02.514Z,101340.19
2022-10-17T08:20:32.763Z,101339.44
2022-10-17T08:23:03.037Z,101339.77
2022-10-17T08:25:33.980Z,101337.94
2022-10-17T08:28:04.313Z,101339.65
2022-10-17T08:30:34.735Z,101338.21
2022-10-17T08:33:05.032Z,101338.16
2022-10-17T08:35:35.332Z,101337.81
2022-10-17T08:38:05.667Z,101338.81
2022-10-17T08:40:36.448Z,101338.05
2022-10-17T08:43:26.351Z,101329.33
2022-10-17T08:46:00.444Z,101329.93
2022-10-17T08:48:33.827Z,101329.66
2022-10-17T08:51:08.189Z,101329.70
2022-10-17T08:53:43.633Z,101328.01
2022-10-17T08:56:24.922Z,101325.94
2022-10-17T08:59:14.348Z,101318.37
2022-10-17T09:01:51.017Z,101316.46
2022-10-17T09:04:43.115Z,101314.38
2022-10-17T09:07:19.742Z,101313.86
2022-10-17T09:10:00.905Z,101312.94
2022-10-17T09:12:39.846Z,101308.98
2022-10-17T09:15:30.934Z,101311.70
2022-10-17T09:18:04.611Z,101311.02
2022-10-17T09:20:39.208Z,101310.86
2022-10-17T09:23:16.793Z,101314.10
2022-10-17T09:25:49.122Z,101312.95
2022-10-17T09:28:23.029Z,101309.70
2022-10-17T09:30:58.088Z,101306.73
2022-10-17T09:33:53.373Z,101301.19
2022-10-17T09:36:23.874Z,101296.82
2022-10-17T09:38:57.112Z,101296.08
2022-10-17T09:41:44.929Z,101301.23
2022-10-17T09:44:24.166Z,101303.02
2022-10-17T09:47:03.841Z,101298.73
2022-10-17T09:49:36.939Z,101294.88
2022-10-17T09:52:12.481Z,101296.79
2022-10-17T09:54:48.286Z,101294.88
2022-10-17T09:57:20.780Z,101298.29
2022-10-17T10:00:00.144Z,101300.86
2022-10-17T10:02:33.513Z,101293.09
2022-10-17T10:05:07.262Z,101292.96
2022-10-17T10:07:40.300Z,101290.61
2022-10-17T10:10:27.858Z,101292.02
2022-10-17T10:13:07.991Z,101293.36
2022-10-17T10:15:41.185Z,101292.66
2022-10-17T10:18:35.717Z,101288.73
2022-10-17T10:21:13.160Z,101289.38
2022-10-17T10:23:47.039Z,101288.77
2022-10-17T10:26:28.935Z,101291.86
2022-10-17T10:29:02.276Z,101293.59
2022-10-17T10:31:36.270Z,101289.55
2022-10-17T10:34:17.796Z,101288.50
2022-10-17T10:36:57.459Z,101288.70
2022-10-17T10:39:36.298Z,101287.90
2022-10-17T10:42:10.227Z,101286.50
2022-10-17T10:44:42.535Z,101290.59
2022-10-17T10:47:26.096Z,101286.30
2022-10-17T10:50:16.966Z,101279.87
2022-10-17T10:52:51.457Z,101273.76
2022-10-17T10:55:28.618Z,101274.86
2022-10-17T10:58:04.124Z,101273.30
2022-10-17T11:00:39.101Z,101274.21
2022-10-17T11:03:17.204Z,101271.85
2022-10-17T11:05:53.962Z,101268.74
2022-10-17T11:08:29.749Z,101266.44
2022-10-17T11:11:07.707Z,101270.29
2022-10-17T11:13:42.288Z,101269.99
2022-10-17T11:16:24.337Z,101268.33
2022-10-17T11:19:00.913Z,101268.02
2022-10-17T11:21:35.421Z,101263.56
2022-10-17T11:24:15.317Z,101261.89
2022-10-17T11:26:50.417Z,101259.42
2022-10-17T11:29:20.992Z,101262.02
2022-10-17T11:31:54.733Z,101255.54
2022-10-17T11:34:27.566Z,101254.52
2022-10-17T11:37:04.332Z,101252.88
2022-10-17T11:42:25.766Z,101251.23
2022-10-17T11:45:01.713Z,101246.85
2022-10-17T11:47:40.380Z,101243.70
2022-10-17T11:53:17.354Z,101235.34
2022-10-17T11:55:48.783Z,101233.72
2022-10-17T11:58:34.147Z,101228.83
2022-10-17T12:01:15.149Z,101226.70
2022-10-17T12:04:02.890Z,101224.47
2022-10-17T12:06:46.376Z,101226.30
2022-10-17T12:09:26.024Z,101222.76
2022-10-17T12:11:58.549Z,101217.73
2022-10-17T12:14:41.454Z,101213.51
2022-10-17T12:17:39.130Z,101215.07
2022-10-17T12:20:29.038Z,101218.55
2022-10-17T12:23:02.892Z,101207.89
2022-10-17T12:25:35.283Z,101209.00
2022-10-17T12:28:18.243Z,101208.13
2022-10-17T12:30:58.677Z,101206.02
2022-10-17T12:33:34.114Z,101212.63
2022-10-17T12:36:50.343Z,101211.58
2022-10-17T12:39:52.630Z,101205.57
2022-10-17T12:42:34.711Z,101205.39
2022-10-17T12:45:26.164Z,101206.34
2022-10-17T12:47:56.388Z,101203.04
2022-10-17T12:54:00.842Z,101201.48
2022-10-17T12:56:39.494Z,101197.49
2022-10-17T12:59:16.400Z,101195.84
2022-10-17T13:01:47.897Z,101194.42
2022-10-17T13:04:18.918Z,101197.18
2022-10-17T13:06:53.982Z,101199.69
2022-10-17T13:09:30.553Z,101199.84
2022-10-17T13:12:04.009Z,101196.67
2022-10-17T13:14:35.850Z,101200.48
2022-10-17T13:17:21.917Z,101197.58
2022-10-17T13:19:52.514Z,101196.54
2022-10-17T13:22:25.188Z,101197.83
2022-10-17T13:25:08.216Z,101198.52
2022-10-17T13:27:41.579Z,101199.78
2022-10-17T13:30:32.517Z,101196.36
2022-10-17T13:33:03.781Z,101193.51
2022-10-17T13:38:34.784Z,101181.63
2022-10-17T13:41:34.672Z,101182.05
2022-10-17T13:44:12.536Z,101177.36
2022-10-17T13:46:43.963Z,101178.65
2022-10-17T13:49:24.454Z,101176.06
2022-10-17T13:52:01.379Z,101180.92
2022-10-17T13:54:40.077Z,101182.27
2022-10-17T13:57:21.894Z,101191.11
2022-10-17T13:59:54.514Z,101189.83
2022-10-17T14:02:28.422Z,101185.23
2022-10-17T14:05:17.355Z,101184.78
2022-10-17T14:10:45.363Z,101193.41
2022-10-17T14:13:24.407Z,101193.95
2022-10-17T14:15:55.863Z,101187.09
2022-10-17T14:18:30.956Z,101179.27
2022-10-17T14:24:16.273Z,101178.14
2022-10-17T14:26:54.418Z,101178.80
2022-10-17T14:29:27.296Z,101180.50
2022-10-17T14:32:03.588Z,101178.16
2022-10-17T14:34:37.183Z,101184.80
2022-10-17T14:37:13.692Z,101180.91
2022-10-17T14:39:42.464Z,101180.61
2022-10-17T14:42:21.799Z,101180.48
2022-10-17T14:44:54.479Z,101180.21
2022-10-17T14:47:43.327Z,101181.10
2022-10-17T14:50:25.790Z,101187.30
2022-10-17T14:53:04.796Z,101190.69
2022-10-17T14:55:37.584Z,101189.17
2022-10-17T14:58:21.701Z,101189.02
2022-10-17T15:00:51.993Z,101184.05
2022-10-17T15:03:22.702Z,101188.23
2022-10-17T15:05:55.411Z,101185.17
2022-10-17T15:08:26.158Z,101186.02
2022-10-17T15:10:56.435Z,101185.16
2022-10-17T15:13:28.835Z,101182.52
2022-10-17T15:16:00.556Z,101180.32
2022-10-17T15:18:30.816Z,101178.59
2022-10-17T15:21:05.451Z,101183.33
2022-10-17T15:23:43.275Z,101178.31
2022-10-17T15:26:21.685Z,101181.41
2022-10-17T15:28:54.156Z,101177.05
2022-10-17T15:31:27.653Z,101177.93
2022-10-17T15:33:58.382Z,101177.48
2022-10-17T15:36:30.576Z,101178.61
2022-10-17T15:39:02.513Z,101177.82
2022-10-17T15:41:34.332Z,101172.75
2022-10-17T15:44:04.650Z,101175.14
2022-10-17T15:46:36.481Z,101177.14
2022-10-17T15:49:08.660Z,101180.39
2022-10-17T15:51:38.936Z,101177.78
2022-10-17T15:54:09.530Z,101175.43
2022-10-17T15:56:42.315Z,101179.80
2022-10-17T15:59:17.933Z,101179.96
2022-10-17T16:01:48.677Z,101181.20
2022-10-17T16:04:19.020Z,101179.81
2022-10-17T16:06:49.306Z,101177.36
2022-10-17T16:09:19.583Z,101179.34
2022-10-17T16:11:49.793Z,101179.34
2022-10-17T16:14:20.111Z,101177.08
2022-10-17T16:16:50.436Z,101180.37
2022-10-17T16:19:20.912Z,101178.80
2022-10-17T16:21:51.357Z,101182.45
2022-10-17T16:24:21.600Z,101184.27
2022-10-17T16:26:52.248Z,101187.30
2022-10-17T16:29:22.508Z,101190.14
2022-10-17T16:31:52.736Z,101191.73
2022-10-17T16:34:22.935Z,101186.59
2022-10-17T16:36:53.223Z,101186.99
2022-10-17T16:39:23.515Z,101184.55
2022-10-17T16:41:56.265Z,101183.59
2022-10-17T16:44:31.259Z,101183.21
2022-10-17T16:47:01.479Z,101186.42
2022-10-17T16:49:31.688Z,101186.11
2022-10-17T16:52:01.898Z,101190.95
2022-10-17T16:54:32.163Z,101189.98
2022-10-17T16:57:02.721Z,101189.73
2022-10-17T16:59:33.074Z,101189.77
2022-10-17T17:02:03.312Z,101186.99
2022-10-17T17:04:37.450Z,101191.30
2022-10-17T17:07:07.959Z,101190.98
2022-10-17T17:09:43.350Z,101191.72
2022-10-17T17:12:13.731Z,101192.43
2022-10-17T17:14:43.952Z,101193.66
2022-10-17T17:17:24.393Z,101192.66
2022-10-17T17:20:00.991Z,101192.37
2022-10-17T17:22:31.233Z,101192.54
2022-10-17T17:25:01.463Z,101193.85
2022-10-17T17:27:32.281Z,101190.11
2022-10-17T17:30:02.721Z,101189.96
2022-10-17T17:32:34.575Z,101189.59
2022-10-17T17:35:05.191Z,101191.70
2022-10-17T17:37:35.926Z,101195.21
2022-10-17T17:40:09.510Z,101194.07
2022-10-17T17:42:39.730Z,101190.79
2022-10-17T17:45:12.041Z,101193.02
2022-10-17T17:47:42.269Z,101194.02
2022-10-17T17:50:13.263Z,101193.23
2022-10-17T17:52:45.568Z,101196.67
2022-10-17T17:55:15.867Z,101193.02
2022-10-17T17:57:46.130Z,101196.84
2022-10-17T18:00:17.554Z,101193.91
2022-10-17T18:02:47.826Z,101194.89
2022-10-17T18:05:19.491Z,101200.98
2022-10-17T18:07:49.849Z,101196.77
2022-10-17T18:10:28.952Z,101199.52
2022-10-17T18:12:59.208Z,101202.77
2022-10-17T18:15:29.543Z,101198.59
2022-10-17T18:17:59.831Z,101196.70
2022-10-17T18:20:30.147Z,101202.27
2022-10-17T18:23:03.451Z,101199.29
2022-10-17T18:25:34.561Z,101198.81
2022-10-17T18:28:05.371Z,101204.02
2022-10-17T18:30:39.253Z,101208.02
2022-10-17T18:33:09.497Z,101204.33
2022-10-17T18:35:39.690Z,101205.61
2022-10-17T18:38:09.957Z,101205.13
2022-10-17T18:40:40.504Z,101203.77
2022-10-17T18:43:11.161Z,101203.13
2022-10-17T18:45:41.411Z,101206.02
2022-10-17T18:48:11.707Z,101201.27
2022-10-17T18:50:41.920Z,101205.21
2022-10-17T18:53:12.110Z,101200.99
2022-10-17T18:55:42.690Z,101206.67
2022-10-17T18:58:12.975Z,101206.71
2022-10-17T19:00:43.224Z,101207.11
2022-10-17T19:03:13.553Z,101204.69
2022-10-17T19:05:45.204Z,101206.50
2022-10-17T19:08:16.201Z,101211.88
2022-10-17T19:10:46.693Z,101210.54
2022-10-17T19:13:21.596Z,101214.88
2022-10-17T19:15:52.252Z,101220.98
2022-10-17T19:18:24.635Z,101221.23
2022-10-17T19:20:54.949Z,101224.33
2022-10-17T19:23:25.430Z,101220.33
2022-10-17T19:26:00.387Z,101218.55
2022-10-17T19:28:30.909Z,101222.14
2022-10-17T19:31:01.286Z,101228.89
2022-10-17T19:33:32.152Z,101227.27
2022-10-17T19:36:05.053Z,101226.33
2022-10-17T19:38:36.029Z,101228.59
2022-10-17T19:41:13.119Z,101231.92
2022-10-17T19:43:44.814Z,101227.86
2022-10-17T19:46:18.343Z,101226.69
2022-10-17T19:48:49.561Z,101234.58
2022-10-17T19:51:21.683Z,101232.00
2022-10-17T19:53:52.150Z,101234.61
2022-10-17T19:56:24.630Z,101236.34
2022-10-17T19:59:00.233Z,101237.48
2022-10-17T20:01:33.678Z,101236.16
2022-10-17T20:04:04.700Z,101239.07
2022-10-17T20:06:35.661Z,101234.42
2022-10-17T20:09:11.025Z,101229.70
2022-10-17T20:11:44.253Z,101232.42
2022-10-17T20:14:15.468Z,101238.84
2022-10-17T20:16:50.126Z,101240.29
2022-10-17T20:19:20.879Z,101240.52
2022-10-17T20:21:51.343Z,101244.45
2022-10-17T20:24:21.599Z,101246.27
2022-10-17T20:26:51.865Z,101251.09
2022-10-17T20:29:24.060Z,101249.72
2022-10-17T20:31:54.318Z,101249.70
2022-10-17T20:34:24.877Z,101248.71
2022-10-17T20:36:55.186Z,101255.45
2022-10-17T20:39:25.432Z,101257.33
2022-10-17T20:41:55.997Z,101260.15
2022-10-17T20:44:26.250Z,101260.06
2022-10-17T20:47:02.836Z,101262.21
2022-10-17T20:49:34.121Z,101262.77
2022-10-17T20:52:04.404Z,101259.08
2022-10-17T20:54:34.686Z,101253.77
2022-10-17T20:57:05.796Z,101252.13
2022-10-17T20:59:36.969Z,101246.58
2022-10-17T21:02:07.761Z,101243.34
2022-10-17T21:04:46.219Z,101251.86
2022-10-17T21:07:17.348Z,101264.88
2022-10-17T21:09:47.538Z,101272.46
2022-10-17T21:12:26.042Z,101274.41
2022-10-17T21:15:01.815Z,101263.23
2022-10-17T21:17:32.044Z,101256.61
2022-10-17T21:20:02.366Z,101258.16
2022-10-17T21:22:33.691Z,101264.30
2022-10-17T21:25:04.070Z,101275.85
2022-10-17T21:27:34.302Z,101275.36
2022-10-17T21:30:05.090Z,101276.42
2022-10-17T21:32:51.056Z,101266.99
2022-10-17T21:35:22.182Z,101262.56
2022-10-17T21:37:53.388Z,101252.83
2022-10-17T21:40:23.594Z,101251.02
2022-10-17T21:42:53.826Z,101250.66
2022-10-17T21:45:25.862Z,101243.70
2022-10-17T21:48:12.110Z,101244.88
2022-10-17T21:50:43.328Z,101253.27
2022-10-17T21:53:13.531Z,101252.08
2022-10-17T21:55:43.795Z,101245.20
2022-10-17T21:58:14.046Z,101244.73
2022-10-17T22:00:44.284Z,101248.69
2022-10-17T22:03:15.203Z,101254.05
2022-10-17T22:05:46.418Z,101250.02
2022-10-17T22:08:16.853Z,101246.73
2022-10-17T22:10:47.148Z,101247.39
2022-10-17T22:13:17.371Z,101249.30
2022-10-17T22:15:47.598Z,101243.65
2022-10-17T22:18:17.890Z,101246.71
2022-10-17T22:20:48.096Z,101248.54
2022-10-17T22:23:18.361Z,101240.97
2022-10-17T22:25:55.385Z,101243.68
2022-10-17T22:28:26.739Z,101247.95
2022-10-17T22:30:57.091Z,101244.85
2022-10-17T22:33:27.381Z,101242.83
2022-10-17T22:35:57.607Z,101235.96
2022-10-17T22:38:27.887Z,101236.46
2022-10-17T22:40:58.288Z,101237.13
2022-10-17T22:43:29.676Z,101230.22
2022-10-17T22:46:01.915Z,101233.80
2022-10-17T22:48:32.392Z,101235.67
2022-10-17T22:51:03.316Z,101234.64
2022-10-17T22:53:35.060Z,101236.09
2022-10-17T22:56:07.739Z,101240.33
2022-10-17T22:58:38.886Z,101237.07
2022-10-17T23:01:11.362Z,101238.40
2022-10-17T23:03:41.761Z,101241.79
2022-10-17T23:06:14.855Z,101245.73
2022-10-17T23:08:45.370Z,101245.49
2022-10-17T23:11:15.640Z,101242.08
2022-10-17T23:13:47.076Z,101243.17
2022-10-17T23:16:17.328Z,101238.98
2022-10-17T23:18:47.787Z,101234.98
2022-10-17T23:21:18.153Z,101238.09
2022-10-17T23:23:48.408Z,101243.32
2022-10-17T23:26:18.601Z,101237.36
2022-10-17T23:28:48.955Z,101229.75
2022-10-17T23:31:20.819Z,101232.11
2022-10-17T23:33:51.612Z,101225.48
2022-10-17T23:36:22.582Z,101222.66
2022-10-17T23:38:55.104Z,101220.37
2022-10-17T23:41:28.613Z,101217.56
2022-10-17T23:43:58.861Z,101218.91
2022-10-17T23:46:29.076Z,101221.96
2022-10-17T23:48:59.403Z,101223.80
2022-10-17T23:51:30.277Z,101226.82
2022-10-17T23:54:00.531Z,101227.19
2022-10-17T23:56:30.823Z,101230.39
2022-10-17T23:59:01.128Z,101228.27
